createdAt,value
2023-04-05T00:00:27.518Z,3.80
2023-04-05T00:02:58.030Z,3.60
2023-04-05T00:05:30.615Z,3.08
2023-04-05T00:08:01.620Z,3.78
2023-04-05T00:10:29.399Z,3.58
2023-04-05T00:12:56.612Z,3.50
2023-04-05T00:15:23.726Z,3.53
2023-04-05T00:17:50.694Z,3.00
2023-04-05T00:20:17.491Z,3.28
2023-04-05T00:22:44.749Z,3.35
2023-04-05T00:25:11.999Z,3.75
2023-04-05T00:27:39.650Z,3.38
2023-04-05T00:30:07.540Z,3.83
2023-04-05T00:32:34.315Z,3.53
2023-04-05T00:35:01.304Z,3.72
2023-04-05T00:37:28.094Z,3.55
2023-04-05T00:39:57.337Z,3.55
2023-04-05T00:42:24.108Z,4.15
2023-04-05T00:44:50.910Z,3.70
2023-04-05T00:47:17.858Z,3.45
2023-04-05T00:49:44.625Z,3.30
2023-04-05T00:52:13.016Z,3.30
2023-04-05T00:54:39.768Z,3.72
2023-04-05T00:57:07.014Z,3.80
2023-04-05T00:59:33.869Z,3.30
2023-04-05T01:02:25.149Z,3.97
2023-04-05T01:05:02.438Z,3.35
2023-04-05T01:07:43.283Z,3.50
2023-04-05T01:10:13.480Z,4.18
2023-04-05T01:12:41.501Z,4.15
2023-04-05T01:15:09.147Z,3.65
2023-04-05T01:17:39.148Z,3.45
2023-04-05T01:20:13.084Z,3.53
2023-04-05T01:23:01.859Z,3.40
2023-04-05T01:25:49.753Z,3.65
2023-04-05T01:28:47.260Z,4.20
2023-04-05T01:31:55.934Z,3.40
2023-04-05T01:34:48.656Z,3.60
2023-04-05T01:37:19.162Z,3.58
2023-04-05T01:39:48.222Z,3.70
2023-04-05T01:42:15.028Z,3.70
2023-04-05T01:44:41.863Z,3.92
2023-04-05T01:47:08.682Z,3.33
2023-04-05T01:49:35.562Z,4.30
2023-04-05T01:52:02.296Z,4.20
2023-04-05T01:54:29.050Z,3.50
2023-04-05T01:56:56.675Z,3.75
2023-04-05T01:59:23.455Z,3.35
2023-04-05T02:01:51.332Z,3.55
2023-04-05T02:04:18.111Z,3.22
2023-04-05T02:06:44.856Z,3.95
2023-04-05T02:09:11.718Z,3.60
2023-04-05T02:11:38.459Z,3.63
2023-04-05T02:14:05.286Z,3.78
2023-04-05T02:16:34.635Z,3.20
2023-04-05T02:19:01.418Z,3.40
2023-04-05T02:21:28.230Z,3.95
2023-04-05T02:23:55.051Z,3.42
2023-04-05T02:26:21.865Z,3.63
2023-04-05T02:28:48.632Z,3.40
2023-04-05T02:31:15.669Z,3.75
2023-04-05T02:33:42.711Z,3.65
2023-04-05T02:36:11.894Z,4.35
2023-04-05T02:38:38.659Z,3.33
2023-04-05T02:41:11.559Z,3.80
2023-04-05T02:43:39.060Z,3.20
2023-04-05T02:46:06.228Z,3.75
2023-04-05T02:48:33.250Z,3.78
2023-04-05T02:51:00.036Z,3.65
2023-04-05T02:53:26.783Z,3.45
2023-04-05T02:55:56.647Z,3.20
2023-04-05T02:58:24.294Z,3.78
2023-04-05T03:00:54.212Z,3.60
2023-04-05T03:03:22.470Z,4.07
2023-04-05T03:05:59.065Z,3.42
2023-04-05T03:08:25.822Z,3.20
2023-04-05T03:10:52.560Z,3.30
2023-04-05T03:13:19.307Z,3.67
2023-04-05T03:15:46.072Z,3.75
2023-04-05T03:18:12.816Z,3.75
2023-04-05T03:20:40.161Z,4.03
2023-04-05T03:23:10.930Z,3.42
2023-04-05T03:25:38.421Z,3.65
2023-04-05T03:28:06.503Z,3.75
2023-04-05T03:30:33.545Z,3.88
2023-04-05T03:33:01.357Z,3.85
2023-04-05T03:35:29.273Z,3.33
2023-04-05T03:37:57.319Z,3.47
2023-04-05T03:40:24.905Z,3.78
2023-04-05T03:42:52.527Z,4.18
2023-04-05T03:45:23.771Z,3.92
2023-04-05T03:47:51.063Z,4.13
2023-04-05T03:50:17.922Z,3.70
2023-04-05T03:52:44.797Z,4.03
2023-04-05T03:55:13.342Z,3.95
2023-04-05T03:57:42.251Z,3.28
2023-04-05T04:00:19.918Z,3.53
2023-04-05T04:02:48.451Z,4.30
2023-04-05T04:05:16.758Z,3.20
2023-04-05T04:07:44.595Z,3.25
2023-04-05T04:10:13.861Z,3.22
2023-04-05T04:12:40.838Z,3.28
2023-04-05T04:15:08.080Z,3.95
2023-04-05T04:17:36.932Z,4.70
2023-04-05T04:20:11.298Z,3.92
2023-04-05T04:22:40.161Z,3.60
2023-04-05T04:25:12.483Z,3.65
2023-04-05T04:27:42.019Z,4.18
2023-04-05T04:30:14.747Z,3.90
2023-04-05T04:32:52.596Z,3.90
2023-04-05T04:35:34.629Z,3.75
2023-04-05T04:38:04.853Z,3.97
2023-04-05T04:40:41.484Z,4.35
2023-04-05T04:43:14.397Z,3.88
2023-04-05T04:45:41.703Z,4.77
2023-04-05T04:48:08.834Z,4.38
2023-04-05T04:50:36.000Z,4.32
2023-04-05T04:53:03.178Z,5.03
2023-04-05T04:55:30.349Z,4.13
2023-04-05T04:57:57.346Z,4.40
2023-04-05T05:00:24.848Z,4.95
2023-04-05T05:02:52.897Z,4.43
2023-04-05T05:05:22.753Z,4.25
2023-04-05T05:07:50.425Z,4.18
2023-04-05T05:10:17.207Z,4.22
2023-04-05T05:12:43.971Z,4.13
2023-04-05T05:15:12.215Z,4.50
2023-04-05T05:17:39.547Z,4.38
2023-04-05T05:20:11.147Z,3.70
2023-04-05T05:22:38.845Z,4.57
2023-04-05T05:25:07.312Z,4.43
2023-04-05T05:27:34.403Z,5.15
2023-04-05T05:30:01.241Z,4.22
2023-04-05T05:32:28.277Z,4.65
2023-04-05T05:34:55.172Z,4.78
2023-04-05T05:37:34.728Z,4.45
2023-04-05T05:40:01.720Z,4.07
2023-04-05T05:42:28.525Z,4.60
2023-04-05T05:44:55.305Z,4.50
2023-04-05T05:47:22.256Z,4.57
2023-04-05T05:49:49.739Z,4.72
2023-04-05T05:52:16.824Z,4.70
2023-04-05T05:54:43.577Z,4.43
2023-04-05T05:57:10.373Z,5.18
2023-04-05T05:59:37.151Z,5.40
2023-04-05T06:02:04.128Z,6.03
2023-04-05T06:04:31.181Z,5.10
2023-04-05T06:06:58.997Z,5.95
2023-04-05T06:09:25.745Z,6.03
2023-04-05T06:11:56.547Z,6.30
2023-04-05T06:14:25.240Z,7.15
2023-04-05T06:16:52.684Z,6.18
2023-04-05T06:19:19.427Z,6.30
2023-04-05T06:21:46.228Z,5.57
2023-04-05T06:24:13.046Z,6.13
2023-04-05T06:26:39.796Z,6.07
2023-04-05T06:29:06.717Z,5.68
2023-04-05T06:31:35.730Z,5.88
2023-04-05T06:34:02.660Z,6.35
2023-04-05T06:36:34.033Z,5.15
2023-04-05T06:39:01.013Z,5.35
2023-04-05T06:41:28.021Z,5.57
2023-04-05T06:43:55.978Z,6.15
2023-04-05T06:46:23.189Z,5.45
2023-04-05T06:48:51.117Z,5.57
2023-04-05T06:51:18.698Z,5.43
2023-04-05T06:53:45.671Z,6.65
2023-04-05T06:56:12.483Z,6.00
2023-04-05T06:58:39.307Z,5.70
2023-04-05T07:01:06.502Z,5.38
2023-04-05T07:03:33.988Z,5.18
2023-04-05T07:06:01.211Z,5.20
2023-04-05T07:08:31.112Z,5.32
2023-04-05T07:10:58.506Z,5.10
2023-04-05T07:13:25.821Z,5.20
2023-04-05T07:15:53.266Z,5.40
2023-04-05T07:18:20.335Z,4.82
2023-04-05T07:20:51.362Z,4.97
2023-04-05T07:23:18.290Z,5.25
2023-04-05T07:25:45.665Z,6.05
2023-04-05T07:28:12.442Z,5.13
2023-04-05T07:30:39.310Z,5.53
2023-04-05T07:33:06.182Z,4.45
2023-04-05T07:35:33.039Z,4.80
2023-04-05T07:37:59.833Z,5.65
2023-04-05T07:40:27.668Z,4.78
2023-04-05T07:42:54.699Z,4.60
2023-04-05T07:45:21.475Z,4.43
2023-04-05T07:47:48.375Z,5.00
2023-04-05T07:50:15.710Z,6.22
2023-04-05T07:52:43.017Z,4.70
2023-04-05T07:55:10.886Z,5.03
2023-04-05T07:57:37.912Z,4.78
2023-04-05T08:00:11.741Z,4.80
2023-04-05T08:02:38.552Z,4.70
2023-04-05T08:05:05.865Z,5.00
2023-04-05T08:07:32.719Z,4.65
2023-04-05T08:10:00.040Z,3.90
2023-04-05T08:12:27.213Z,3.42
2023-04-05T08:14:54.236Z,4.93
2023-04-05T08:17:21.094Z,3.72
2023-04-05T08:19:49.295Z,3.47
2023-04-05T08:22:17.762Z,3.20
2023-04-05T08:24:44.816Z,3.92
2023-04-05T08:27:12.050Z,3.30
2023-04-05T08:29:38.992Z,3.58
2023-04-05T08:32:06.174Z,3.50
2023-04-05T08:34:33.010Z,3.38
2023-04-05T08:37:00.428Z,3.55
2023-04-05T08:39:27.493Z,3.45
2023-04-05T08:42:17.274Z,3.05
2023-04-05T08:44:46.473Z,3.10
2023-04-05T08:47:18.841Z,3.08
2023-04-05T08:49:46.135Z,3.10
2023-04-05T08:52:13.148Z,2.80
2023-04-05T08:54:40.011Z,2.38
2023-04-05T08:57:08.506Z,2.50
2023-04-05T08:59:42.025Z,2.50
2023-04-05T09:02:18.652Z,3.03
2023-04-05T09:04:47.429Z,2.20
2023-04-05T09:07:14.982Z,2.10
2023-04-05T09:09:49.727Z,2.20
2023-04-05T09:12:16.771Z,2.50
2023-04-05T09:14:44.199Z,2.38
2023-04-05T09:17:11.680Z,2.33
2023-04-05T09:19:38.977Z,2.03
2023-04-05T09:22:08.109Z,1.52
2023-04-05T09:24:41.934Z,2.20
2023-04-05T09:27:18.055Z,1.70
2023-04-05T09:29:49.883Z,1.50
2023-04-05T09:32:23.348Z,2.20
2023-04-05T09:34:54.067Z,1.67
2023-04-05T09:37:22.309Z,1.52
2023-04-05T09:39:52.086Z,1.60
2023-04-05T09:42:22.956Z,2.13
2023-04-05T09:44:53.974Z,1.70
2023-04-05T09:47:25.097Z,1.65
2023-04-05T09:49:51.992Z,2.85
2023-04-05T09:52:26.988Z,1.92
2023-04-05T09:54:56.671Z,1.85
2023-04-05T09:57:29.324Z,1.83
2023-04-05T09:59:56.680Z,1.45
2023-04-05T10:02:24.131Z,1.55
2023-04-05T10:04:51.687Z,1.52
2023-04-05T10:07:19.742Z,1.40
2023-04-05T10:09:48.441Z,1.55
2023-04-05T10:12:27.118Z,1.20
2023-04-05T10:14:55.477Z,1.50
2023-04-05T10:17:31.614Z,2.00
2023-04-05T10:20:16.281Z,1.50
2023-04-05T10:22:52.161Z,2.20
2023-04-05T10:25:54.105Z,1.50
2023-04-05T10:28:36.145Z,1.48
2023-04-05T10:31:36.886Z,1.35
2023-04-05T10:34:08.830Z,1.70
2023-04-05T10:36:46.113Z,1.90
2023-04-05T10:39:24.211Z,1.85
2023-04-05T10:41:59.938Z,1.50
2023-04-05T10:44:27.206Z,1.95
2023-04-05T10:46:55.584Z,1.58
2023-04-05T10:49:29.736Z,2.22
2023-04-05T10:51:57.377Z,1.80
2023-04-05T10:54:25.153Z,2.30
2023-04-05T10:56:52.038Z,1.70
2023-04-05T10:59:20.858Z,2.10
2023-04-05T11:01:48.355Z,1.92
2023-04-05T11:04:16.189Z,2.10
2023-04-05T11:06:47.736Z,2.40
2023-04-05T11:09:18.625Z,2.15
2023-04-05T11:11:47.685Z,2.17
2023-04-05T11:14:26.742Z,2.50
2023-04-05T11:16:59.674Z,1.70
2023-04-05T11:19:48.185Z,2.00
2023-04-05T11:22:27.488Z,2.10
2023-04-05T11:25:01.885Z,2.40
2023-04-05T11:30:01.854Z,2.10
2023-04-05T11:32:45.700Z,2.40
2023-04-05T11:35:25.709Z,2.25
2023-04-05T11:38:07.923Z,2.65
2023-04-05T11:40:37.405Z,2.63
2023-04-05T11:43:12.280Z,2.35
2023-04-05T11:45:41.986Z,2.60
2023-04-05T11:48:11.470Z,2.33
2023-04-05T11:50:41.855Z,2.13
2023-04-05T11:53:16.217Z,1.85
2023-04-05T11:55:52.547Z,2.55
2023-04-05T11:58:23.695Z,2.22
2023-04-05T12:01:02.764Z,2.22
2023-04-05T12:03:30.731Z,2.58
2023-04-05T12:06:00.368Z,2.80
2023-04-05T12:08:49.957Z,2.53
2023-04-05T12:11:40.952Z,2.55
2023-04-05T12:14:08.195Z,2.83
2023-04-05T12:16:34.959Z,2.63
2023-04-05T12:19:01.744Z,2.22
2023-04-05T12:21:29.146Z,2.25
2023-04-05T12:23:56.702Z,2.55
2023-04-05T12:26:23.985Z,2.33
2023-04-05T12:28:56.665Z,2.33
2023-04-05T12:31:45.350Z,2.72
2023-04-05T12:34:14.438Z,1.95
2023-04-05T12:36:46.050Z,2.08
2023-04-05T12:39:12.903Z,1.85
2023-04-05T12:41:40.160Z,2.08
2023-04-05T12:44:14.933Z,2.10
2023-04-05T12:46:46.584Z,2.20
2023-04-05T12:49:18.496Z,1.70
2023-04-05T12:51:47.716Z,1.80
2023-04-05T12:54:23.885Z,2.70
2023-04-05T12:56:52.932Z,2.08
2023-04-05T12:59:20.586Z,2.30
2023-04-05T13:01:47.424Z,2.53
2023-04-05T13:04:16.983Z,2.17
2023-04-05T13:06:47.201Z,2.40
2023-04-05T13:09:14.435Z,2.47
2023-04-05T13:11:41.200Z,2.92
2023-04-05T13:14:08.556Z,2.17
2023-04-05T13:16:35.503Z,2.05
2023-04-05T13:19:02.386Z,2.08
2023-04-05T13:21:29.164Z,2.30
2023-04-05T13:23:55.949Z,2.00
2023-04-05T13:26:23.382Z,2.28
2023-04-05T13:28:50.205Z,2.60
2023-04-05T13:31:17.330Z,1.85
2023-04-05T13:33:44.304Z,2.30
2023-04-05T13:36:12.473Z,2.03
2023-04-05T13:38:39.805Z,2.38
2023-04-05T13:41:06.647Z,2.42
2023-04-05T13:43:33.740Z,2.53
2023-04-05T13:46:00.599Z,2.00
2023-04-05T13:48:27.399Z,2.00
2023-04-05T13:50:54.177Z,2.10
2023-04-05T13:53:20.948Z,1.95
2023-04-05T13:55:47.687Z,1.80
2023-04-05T13:58:14.589Z,1.75
2023-04-05T14:00:41.823Z,1.95
2023-04-05T14:03:09.019Z,2.10
2023-04-05T14:05:36.118Z,1.67
2023-04-05T14:08:03.033Z,1.80
2023-04-05T14:10:32.011Z,1.85
2023-04-05T14:12:58.846Z,1.92
2023-04-05T14:15:25.703Z,1.83
2023-04-05T14:17:52.576Z,2.05
2023-04-05T14:20:19.513Z,1.80
2023-04-05T14:22:46.291Z,1.70
2023-04-05T14:25:13.073Z,2.10
2023-04-05T14:27:42.220Z,1.67
2023-04-05T14:30:11.188Z,1.95
2023-04-05T14:32:38.327Z,1.75
2023-04-05T14:35:05.678Z,1.77
2023-04-05T14:37:32.419Z,1.45
2023-04-05T14:39:59.182Z,1.85
2023-04-05T14:42:34.132Z,2.47
2023-04-05T14:45:09.322Z,2.13
2023-04-05T14:47:36.338Z,2.30
2023-04-05T14:50:03.192Z,2.15
2023-04-05T14:52:30.562Z,1.83
2023-04-05T14:54:57.327Z,2.15
2023-04-05T14:57:24.096Z,2.25
2023-04-05T14:59:50.856Z,2.15
2023-04-05T15:02:17.722Z,1.55
2023-04-05T15:04:44.558Z,1.75
2023-04-05T15:07:11.341Z,1.70
2023-04-05T15:09:38.160Z,2.78
2023-04-05T15:12:06.232Z,3.53
2023-04-05T15:14:33.009Z,2.50
2023-04-05T15:16:59.863Z,2.50
2023-04-05T15:19:27.366Z,2.17
2023-04-05T15:21:54.196Z,2.03
2023-04-05T15:24:21.008Z,2.17
2023-04-05T15:26:47.796Z,2.45
2023-04-05T15:29:14.580Z,2.55
2023-04-05T15:31:41.810Z,1.80
2023-04-05T15:34:08.671Z,1.75
2023-04-05T15:36:36.172Z,1.95
2023-04-05T15:39:04.980Z,2.30
2023-04-05T15:41:34.064Z,2.30
2023-04-05T15:44:01.133Z,2.05
2023-04-05T15:46:29.170Z,1.83
2023-04-05T15:48:56.145Z,2.20
2023-04-05T15:51:23.161Z,1.83
2023-04-05T15:53:50.152Z,1.77
2023-04-05T15:56:17.968Z,1.92
2023-04-05T15:58:45.242Z,2.25
2023-04-05T16:01:12.113Z,2.10
2023-04-05T16:03:39.059Z,2.20
2023-04-05T16:06:05.991Z,1.75
2023-04-05T16:08:32.811Z,1.80
2023-04-05T16:10:59.593Z,2.08
2023-04-05T16:13:26.602Z,2.10
2023-04-05T16:15:53.430Z,3.35
2023-04-05T16:18:21.248Z,2.95
2023-04-05T16:20:48.233Z,2.63
2023-04-05T16:23:15.468Z,2.00
2023-04-05T16:25:42.508Z,2.28
2023-04-05T16:28:09.446Z,2.08
2023-04-05T16:30:36.797Z,2.13
2023-04-05T16:33:03.695Z,1.63
2023-04-05T16:35:31.246Z,2.00
2023-04-05T16:37:58.483Z,1.98
2023-04-05T16:40:25.592Z,1.83
2023-04-05T16:42:54.131Z,2.40
2023-04-05T16:45:21.479Z,1.90
2023-04-05T16:47:48.469Z,2.33
2023-04-05T16:50:15.348Z,1.88
2023-04-05T16:52:42.363Z,2.45
2023-04-05T16:55:09.735Z,1.60
2023-04-05T16:57:36.623Z,1.98
2023-04-05T17:00:05.762Z,1.90
2023-04-05T17:02:32.567Z,1.90
2023-04-05T17:04:59.375Z,1.73
2023-04-05T17:07:26.336Z,1.63
2023-04-05T17:09:53.220Z,1.88
2023-04-05T17:12:20.284Z,1.75
2023-04-05T17:14:47.034Z,1.58
2023-04-05T17:17:13.784Z,2.03
2023-04-05T17:19:40.527Z,2.45
2023-04-05T17:22:07.294Z,2.75
2023-04-05T17:24:36.103Z,2.47
2023-04-05T17:27:04.285Z,1.70
2023-04-05T17:29:31.056Z,2.30
2023-04-05T17:31:57.898Z,2.10
2023-04-05T17:34:24.883Z,1.92
2023-04-05T17:36:52.736Z,1.90
2023-04-05T17:39:19.746Z,1.98
2023-04-05T17:41:46.597Z,2.22
2023-04-05T17:44:14.801Z,2.65
2023-04-05T17:46:48.535Z,2.22
2023-04-05T17:49:21.025Z,2.25
2023-04-05T17:51:47.955Z,2.13
2023-04-05T17:54:15.439Z,2.80
2023-04-05T17:56:42.242Z,2.90
2023-04-05T17:59:09.419Z,2.72
2023-04-05T18:01:37.919Z,2.83
2023-04-05T18:04:05.724Z,2.47
2023-04-05T18:06:32.835Z,2.78
2023-04-05T18:09:00.250Z,2.33
2023-04-05T18:11:27.011Z,2.63
2023-04-05T18:13:53.830Z,2.65
2023-04-05T18:16:20.650Z,4.05
2023-04-05T18:18:47.475Z,3.63
2023-04-05T18:21:15.329Z,3.92
2023-04-05T18:23:43.175Z,4.00
2023-04-05T18:26:09.969Z,3.90
2023-04-05T18:28:36.765Z,4.07
2023-04-05T18:31:03.532Z,4.20
2023-04-05T18:33:30.321Z,3.90
2023-04-05T18:35:57.136Z,3.85
2023-04-05T18:38:23.914Z,4.80
2023-04-05T18:40:50.757Z,4.90
2023-04-05T18:43:17.701Z,5.60
2023-04-05T18:45:44.616Z,6.22
2023-04-05T18:48:11.773Z,5.45
2023-04-05T18:50:38.578Z,4.43
2023-04-05T18:53:06.761Z,4.72
2023-04-05T18:55:33.534Z,3.67
2023-04-05T18:58:00.288Z,3.85
2023-04-05T19:00:27.061Z,3.72
2023-04-05T19:02:53.871Z,3.97
2023-04-05T19:05:20.744Z,4.15
2023-04-05T19:07:47.488Z,4.13
2023-04-05T19:10:14.251Z,4.50
2023-04-05T19:12:41.391Z,4.95
2023-04-05T19:15:08.774Z,4.75
2023-04-05T19:17:35.528Z,4.63
2023-04-05T19:20:02.419Z,4.72
2023-04-05T19:22:29.196Z,4.15
2023-04-05T19:24:55.975Z,5.00
2023-04-05T19:27:22.751Z,4.90
2023-04-05T19:29:49.501Z,4.53
2023-04-05T19:32:16.302Z,4.88
2023-04-05T19:34:43.058Z,5.07
2023-04-05T19:37:09.791Z,5.28
2023-04-05T19:39:36.761Z,5.88
2023-04-05T19:42:05.184Z,5.45
2023-04-05T19:44:49.932Z,5.30
2023-04-05T19:47:21.485Z,5.63
2023-04-05T19:49:50.060Z,6.68
2023-04-05T19:52:49.027Z,7.30
2023-04-05T19:55:37.073Z,8.00
2023-04-05T19:58:09.750Z,8.13
2023-04-05T20:00:52.588Z,9.40
2023-04-05T20:03:32.662Z,10.75
2023-04-05T20:06:09.155Z,17.40
2023-04-05T20:08:42.034Z,17.60
2023-04-05T20:11:22.506Z,17.05
2023-04-05T20:13:56.374Z,14.68
2023-04-05T20:16:32.900Z,16.38
2023-04-05T20:19:06.320Z,14.60
2023-04-05T20:21:33.945Z,16.10
2023-04-05T20:24:01.478Z,15.73
2023-04-05T20:26:30.947Z,15.48
2023-04-05T20:29:00.375Z,14.35
2023-04-05T20:31:35.881Z,13.15
2023-04-05T20:34:15.232Z,12.75
2023-04-05T20:36:57.106Z,13.23
2023-04-05T20:39:24.419Z,14.40
2023-04-05T20:41:51.373Z,13.75
2023-04-05T20:44:18.425Z,13.00
2023-04-05T20:46:45.308Z,13.55
2023-04-05T20:49:12.186Z,12.18
2023-04-05T20:51:41.230Z,13.13
2023-04-05T20:54:09.566Z,12.38
2023-04-05T20:56:36.450Z,12.02
2023-04-05T20:59:03.216Z,11.48
2023-04-05T21:01:30.511Z,10.60
2023-04-05T21:03:57.587Z,11.82
2023-04-05T21:06:24.354Z,10.88
2023-04-05T21:08:51.144Z,10.05
2023-04-05T21:11:17.915Z,10.50
2023-04-05T21:13:44.686Z,10.95
2023-04-05T21:16:11.708Z,10.00
2023-04-05T21:18:38.593Z,10.05
2023-04-05T21:21:05.654Z,9.45
2023-04-05T21:23:34.264Z,9.57
2023-04-05T21:26:01.518Z,8.65
2023-04-05T21:28:28.299Z,9.55
2023-04-05T21:30:55.091Z,8.93
2023-04-05T21:33:22.289Z,8.63
2023-04-05T21:35:49.224Z,9.10
2023-04-05T21:38:16.129Z,8.85
2023-04-05T21:40:44.443Z,9.75
2023-04-05T21:43:14.667Z,8.25
2023-04-05T21:45:41.419Z,7.55
2023-04-05T21:48:08.219Z,7.88
2023-04-05T21:50:35.214Z,8.10
2023-04-05T21:53:02.059Z,7.88
2023-04-05T21:55:28.816Z,7.32
2023-04-05T21:57:55.644Z,6.63
2023-04-05T22:00:22.475Z,6.63
2023-04-05T22:02:49.289Z,6.97
2023-04-05T22:05:29.435Z,7.43
2023-04-05T22:08:01.301Z,6.93
2023-04-05T22:10:29.056Z,6.88
2023-04-05T22:12:56.065Z,7.55
2023-04-05T22:15:22.853Z,7.20
2023-04-05T22:17:49.707Z,7.68
2023-04-05T22:20:16.550Z,7.13
2023-04-05T22:22:43.342Z,8.07
2023-04-05T22:25:10.162Z,7.25
2023-04-05T22:27:36.985Z,7.80
2023-04-05T22:30:04.770Z,8.00
2023-04-05T22:32:31.664Z,8.43
2023-04-05T22:34:58.474Z,7.75
2023-04-05T22:37:25.458Z,8.05
2023-04-05T22:39:52.188Z,8.20
2023-04-05T22:42:18.929Z,8.70
2023-04-05T22:44:45.760Z,8.70
2023-04-05T22:47:12.571Z,7.85
2023-04-05T22:49:39.327Z,8.27
2023-04-05T22:52:06.146Z,7.55
2023-04-05T22:54:32.946Z,8.10
2023-04-05T22:56:59.665Z,8.25
2023-04-05T22:59:26.442Z,7.80
2023-04-05T23:01:53.305Z,9.20
2023-04-05T23:04:20.174Z,8.43
2023-04-05T23:06:46.920Z,7.47
2023-04-05T23:09:14.649Z,8.68
2023-04-05T23:11:41.477Z,8.35
2023-04-05T23:14:08.478Z,8.75
2023-04-05T23:16:35.578Z,9.18
2023-04-05T23:19:02.352Z,8.48
2023-04-05T23:21:29.111Z,8.52
2023-04-05T23:23:56.066Z,8.48
2023-04-05T23:26:22.883Z,8.57
2023-04-05T23:28:49.646Z,7.53
2023-04-05T23:31:16.418Z,8.30
2023-04-05T23:33:43.254Z,9.25
2023-04-05T23:36:10.613Z,7.70
2023-04-05T23:38:37.416Z,8.20
2023-04-05T23:41:04.332Z,8.77
2023-04-05T23:43:31.882Z,7.47
2023-04-05T23:45:58.653Z,8.30
2023-04-05T23:48:25.392Z,8.25
2023-04-05T23:50:52.162Z,8.02
2023-04-05T23:53:18.904Z,8.55
2023-04-05T23:55:45.735Z,9.35
2023-04-05T23:58:12.582Z,9.52
